Time;durP1;ratioP1;P1;durP2;ratioP2;P2;SDS_P1;SDS_P2;PMS_P1;PMS_P2;Temp;Humidity;BMP_temperature;BMP_pressure;BME280_temperature;BME280_humidity;BME280_pressure;Samples;Min_cycle;Max_cycle;Signal;HPM_P1;HPM_P2
2023/06/25 00:00:14;;;;;;;8.35;5.72;;;;;;;20.36;67.55;102238.38;7388113;19;19957;-75
2023/06/25 00:02:42;;;;;;;9.48;6.20;;;;;;;20.27;68.30;102245.91;7390198;19;20287;-75
2023/06/25 00:05:11;;;;;;;7.72;5.75;;;;;;;20.25;68.21;102245.25;7388897;19;19994;-75
2023/06/25 00:07:43;;;;;;;9.00;6.43;;;;;;;20.21;68.03;102243.16;7390441;19;20538;-75
2023/06/25 00:10:13;;;;;;;8.95;6.03;;;;;;;20.13;68.56;102232.41;7389929;19;19931;-75
2023/06/25 00:12:42;;;;;;;8.18;6.47;;;;;;;20.09;68.07;102231.13;7389224;19;19926;-75
2023/06/25 00:15:13;;;;;;;10.52;6.20;;;;;;;20.04;68.42;102231.75;7390261;19;19927;-76
2023/06/25 00:17:47;;;;;;;7.43;5.30;;;;;;;20.00;68.39;102227.75;7388685;19;20421;-75
2023/06/25 00:20:17;;;;;;;9.40;5.93;;;;;;;19.99;68.75;102228.78;7388750;19;19922;-75
2023/06/25 00:22:48;;;;;;;9.65;6.43;;;;;;;19.98;68.39;102231.72;7388902;19;19931;-75
2023/06/25 00:25:18;;;;;;;8.75;5.68;;;;;;;19.96;68.67;102231.09;7388985;19;19922;-75
2023/06/25 00:27:48;;;;;;;8.88;5.65;;;;;;;19.88;68.55;102227.50;7390879;19;19950;-76
2023/06/25 00:30:17;;;;;;;9.88;6.15;;;;;;;19.88;68.93;102224.75;7393011;19;20670;-74
2023/06/25 00:32:54;;;;;;;8.18;5.75;;;;;;;19.85;68.92;102225.16;7391771;19;19922;-75
2023/06/25 00:35:26;;;;;;;11.15;6.50;;;;;;;19.81;68.62;102217.56;7391178;19;19922;-75
2023/06/25 00:38:00;;;;;;;9.70;6.80;;;;;;;19.81;68.43;102218.41;7392329;19;19923;-75
2023/06/25 00:40:29;;;;;;;11.07;7.35;;;;;;;19.80;68.21;102219.44;7400493;19;19926;-75
2023/06/25 00:42:59;;;;;;;11.75;6.55;;;;;;;19.81;68.44;102217.56;7402857;19;19990;-74
2023/06/25 00:45:28;;;;;;;12.02;6.80;;;;;;;19.79;68.21;102217.78;7399204;19;19927;-74
2023/06/25 00:47:58;;;;;;;10.48;7.00;;;;;;;19.75;68.18;102202.84;7403266;19;19918;-75
2023/06/25 00:50:27;;;;;;;14.13;7.88;;;;;;;19.73;68.30;102210.38;7403392;19;20289;-75
2023/06/25 00:52:59;;;;;;;15.68;7.45;;;;;;;19.69;68.65;102203.66;7404085;19;20024;-75
2023/06/25 00:55:28;;;;;;;12.02;7.35;;;;;;;19.67;68.69;102207.66;7397526;19;19918;-75
2023/06/25 00:57:57;;;;;;;13.70;7.40;;;;;;;19.65;68.49;102207.00;7399042;19;19936;-75
2023/06/25 01:00:27;;;;;;;11.98;7.43;;;;;;;19.66;68.09;102209.53;7395762;19;19978;-75
2023/06/25 01:03:02;;;;;;;11.55;7.50;;;;;;;19.67;68.68;102210.38;7394654;19;20007;-75
2023/06/25 01:05:39;;;;;;;12.40;7.15;;;;;;;19.66;68.27;102195.88;7394949;19;22162;-76
2023/06/25 01:08:12;;;;;;;12.77;7.47;;;;;;;19.62;68.71;102200.06;7395983;19;20844;-75
2023/06/25 01:10:41;;;;;;;11.10;7.55;;;;;;;19.61;68.82;102202.97;7398658;19;20375;-76
2023/06/25 01:13:10;;;;;;;12.98;7.30;;;;;;;19.57;68.58;102194.34;7396684;19;19926;-75
2023/06/25 01:15:39;;;;;;;10.10;7.57;;;;;;;19.56;68.75;102200.84;7400678;19;19951;-76
2023/06/25 01:18:09;;;;;;;11.02;7.38;;;;;;;19.55;68.49;102192.84;7400380;19;19951;-75
2023/06/25 01:20:38;;;;;;;11.77;7.50;;;;;;;19.50;69.29;102198.97;7399657;19;20283;-75
2023/06/25 01:23:10;;;;;;;11.32;6.43;;;;;;;19.47;69.31;102202.91;7393435;19;19931;-75
2023/06/25 01:25:40;;;;;;;12.85;6.65;;;;;;;19.44;68.99;102200.59;7397702;19;19931;-75
2023/06/25 01:28:09;;;;;;;13.55;8.10;;;;;;;19.40;69.40;102198.44;7394923;19;19941;-75
2023/06/25 01:30:37;;;;;;;11.55;7.65;;;;;;;19.34;69.06;102191.03;7393546;19;19946;-75
2023/06/25 01:33:06;;;;;;;12.23;7.45;;;;;;;19.26;69.88;102191.22;7394001;19;19929;-75
2023/06/25 01:35:35;;;;;;;11.60;6.82;;;;;;;19.20;69.77;102190.13;7391389;19;19926;-76
2023/06/25 01:38:04;;;;;;;11.00;6.95;;;;;;;19.19;70.24;102184.88;7392920;19;19990;-75
2023/06/25 01:40:35;;;;;;;14.35;7.93;;;;;;;19.19;69.81;102182.16;7392143;19;20009;-75
2023/06/25 01:43:04;;;;;;;10.82;7.63;;;;;;;19.16;69.82;102180.66;7396303;19;19926;-74
2023/06/25 01:45:32;;;;;;;11.43;7.03;;;;;;;19.13;70.11;102189.25;7391588;19;20005;-75
2023/06/25 01:48:02;;;;;;;11.95;7.07;;;;;;;19.11;69.75;102177.69;7394190;19;19970;-75
2023/06/25 01:50:30;;;;;;;12.80;7.15;;;;;;;19.06;70.27;102173.88;7395669;19;19958;-76
2023/06/25 01:52:59;;;;;;;11.38;7.28;;;;;;;19.01;70.11;102171.75;7393726;19;19982;-76
2023/06/25 01:55:28;;;;;;;10.32;6.57;;;;;;;18.98;70.21;102172.16;7389934;19;20479;-75
2023/06/25 01:57:59;;;;;;;13.30;6.97;;;;;;;18.93;70.82;102167.28;7395150;19;19950;-76
2023/06/25 02:00:28;;;;;;;9.65;6.50;;;;;;;18.87;70.85;102157.16;7391247;19;19978;-75
2023/06/25 02:02:56;;;;;;;11.00;7.40;;;;;;;18.84;71.11;102162.19;7392143;19;19938;-76
2023/06/25 02:05:25;;;;;;;11.65;6.75;;;;;;;18.80;71.12;102164.47;7384409;19;20002;-76
2023/06/25 02:07:54;;;;;;;12.70;7.28;;;;;;;18.78;71.25;102166.56;7392464;19;19922;-76
2023/06/25 02:10:23;;;;;;;12.43;7.00;;;;;;;18.79;70.83;102156.47;7389168;19;19985;-76
2023/06/25 02:12:51;;;;;;;11.20;6.93;;;;;;;18.82;70.88;102156.91;7392962;19;19931;-75
2023/06/25 02:15:23;;;;;;;14.48;7.28;;;;;;;18.82;70.89;102145.13;7390957;19;19922;-76
2023/06/25 02:17:52;;;;;;;15.88;8.07;;;;;;;18.80;71.29;102152.72;7394012;19;20039;-75
2023/06/25 02:20:21;;;;;;;14.00;7.80;;;;;;;18.77;71.14;102144.94;7392373;19;20322;-75
2023/06/25 02:22:51;;;;;;;13.40;8.13;;;;;;;18.74;71.40;102140.69;7392586;19;19951;-75
2023/06/25 02:25:20;;;;;;;11.07;7.75;;;;;;;18.71;71.26;102130.19;7392327;19;20345;-75
2023/06/25 02:27:49;;;;;;;11.93;7.93;;;;;;;18.70;71.38;102139.41;7391712;19;19914;-75
2023/06/25 02:30:18;;;;;;;11.43;7.70;;;;;;;18.68;71.37;102137.94;7390212;19;19926;-75
2023/06/25 02:32:49;;;;;;;11.75;7.70;;;;;;;18.60;71.86;102133.44;7392608;19;19930;-75
2023/06/25 02:35:18;;;;;;;11.13;7.30;;;;;;;18.58;71.59;102127.34;7391821;19;20022;-75
2023/06/25 02:37:47;;;;;;;17.55;8.65;;;;;;;18.58;71.65;102130.94;7389473;19;20017;-74
2023/06/25 02:40:15;;;;;;;11.18;7.10;;;;;;;18.56;71.45;102126.69;7392543;19;19939;-77
2023/06/25 02:42:44;;;;;;;13.52;8.80;;;;;;;18.56;71.58;102130.28;7391959;19;19947;-75
2023/06/25 02:45:13;;;;;;;16.10;9.00;;;;;;;18.55;71.44;102120.41;7391957;19;19922;-75
2023/06/25 02:47:42;;;;;;;13.70;8.50;;;;;;;18.55;71.38;102119.56;7392496;19;19925;-76
2023/06/25 02:50:13;;;;;;;13.18;8.80;;;;;;;18.53;71.52;102108.84;7392012;19;19926;-74
2023/06/25 02:52:42;;;;;;;13.05;8.55;;;;;;;18.55;71.23;102122.31;7389347;19;19977;-75
2023/06/25 02:55:11;;;;;;;14.65;7.93;;;;;;;18.51;71.12;102115.50;7389020;19;20911;-74
2023/06/25 02:57:40;;;;;;;16.02;8.93;;;;;;;18.51;71.23;102116.34;7393211;19;20473;-75
2023/06/25 03:00:10;;;;;;;15.32;8.25;;;;;;;18.51;71.04;102118.22;7391300;19;19922;-74
2023/06/25 03:02:39;;;;;;;13.90;8.27;;;;;;;18.52;71.35;102117.19;7387975;19;19919;-75
2023/06/25 03:05:08;;;;;;;13.30;7.90;;;;;;;18.51;71.54;102115.50;7388646;19;19936;-75
2023/06/25 03:07:39;;;;;;;15.15;8.10;;;;;;;18.47;71.20;102114.22;7393639;19;19919;-75
2023/06/25 03:10:09;;;;;;;12.10;7.93;;;;;;;18.45;71.17;102114.44;7390014;19;22586;-75
2023/06/25 03:12:38;;;;;;;13.43;8.55;;;;;;;18.45;71.75;102116.31;7396333;19;19974;-75
2023/06/25 03:15:08;;;;;;;12.27;8.18;;;;;;;18.46;71.23;102120.72;7401101;19;19925;-76
2023/06/25 03:17:37;;;;;;;13.27;7.65;;;;;;;18.42;71.23;102114.81;7411720;19;20308;-75
2023/06/25 03:20:06;;;;;;;14.07;8.23;;;;;;;18.41;71.30;102106.84;7398949;19;19926;-75
2023/06/25 03:22:39;;;;;;;15.00;8.45;;;;;;;18.38;71.12;102110.78;7404978;19;19957;-75
2023/06/25 03:25:08;;;;;;;12.95;8.52;;;;;;;18.40;71.20;102116.06;7398128;19;19918;-75
2023/06/25 03:27:37;;;;;;;11.43;7.15;;;;;;;18.38;71.43;102109.97;7387919;19;19982;-75
2023/06/25 03:30:07;;;;;;;13.65;7.78;;;;;;;18.40;71.52;102108.72;7392009;19;19978;-75
2023/06/25 03:32:36;;;;;;;14.63;8.18;;;;;;;18.39;71.30;102111.63;7390096;19;20004;-74
2023/06/25 03:35:05;;;;;;;13.27;8.60;;;;;;;18.39;71.28;102107.03;7390008;19;19926;-76
2023/06/25 03:37:34;;;;;;;13.77;8.73;;;;;;;18.40;71.56;102113.31;7390180;19;19914;-75
2023/06/25 03:40:06;;;;;;;13.40;9.02;;;;;;;18.40;71.16;102108.72;7388462;19;19922;-77
2023/06/25 03:42:35;;;;;;;17.27;9.35;;;;;;;18.41;71.37;102106.84;7391299;19;19962;-76
2023/06/25 03:45:04;;;;;;;13.88;8.80;;;;;;;18.41;71.43;102101.38;7394826;19;19922;-74
2023/06/25 03:47:32;;;;;;;16.73;8.50;;;;;;;18.41;71.37;102098.66;7393150;19;19929;-76
2023/06/25 03:50:01;;;;;;;12.60;8.45;;;;;;;18.41;71.25;102101.38;7392904;19;19922;-75
2023/06/25 03:52:30;;;;;;;15.73;8.68;;;;;;;18.41;71.29;102102.22;7386698;19;20632;-76
2023/06/25 03:54:59;;;;;;;15.25;8.82;;;;;;;18.42;71.20;102092.16;7387798;19;20411;-74
2023/06/25 03:57:32;;;;;;;14.77;8.82;;;;;;;18.43;71.31;102091.09;7390561;19;19922;-74
2023/06/25 04:00:00;;;;;;;16.65;9.35;;;;;;;18.44;71.13;102093.63;7387785;19;19923;-74
2023/06/25 04:02:29;;;;;;;15.40;9.07;;;;;;;18.48;71.55;102088.63;7388239;19;19918;-76
2023/06/25 04:04:58;;;;;;;21.52;9.90;;;;;;;18.50;71.21;102089.28;7384863;19;19925;-76
2023/06/25 04:07:27;;;;;;;13.60;8.80;;;;;;;18.52;71.17;102085.31;7389236;19;19932;-75
2023/06/25 04:09:55;;;;;;;13.75;8.55;;;;;;;18.54;71.07;102088.72;7386315;19;19929;-75
2023/06/25 04:12:24;;;;;;;17.25;8.90;;;;;;;18.56;70.88;102080.31;7388928;19;20384;-75
2023/06/25 04:14:55;;;;;;;15.50;9.32;;;;;;;18.61;70.79;102082.44;7390595;19;19924;-75
2023/06/25 04:17:24;;;;;;;14.63;8.70;;;;;;;18.65;70.63;102089.16;7396252;19;20260;-75
2023/06/25 04:19:53;;;;;;;15.88;8.65;;;;;;;18.69;70.86;102090.47;7394802;19;19927;-75
2023/06/25 04:22:22;;;;;;;15.35;8.40;;;;;;;18.69;70.79;102091.31;7395197;19;19930;-76
2023/06/25 04:24:52;;;;;;;16.90;9.63;;;;;;;18.70;71.09;102086.69;7393155;19;19924;-76
2023/06/25 04:27:21;;;;;;;16.33;9.23;;;;;;;18.70;70.48;102087.53;7396318;19;19981;-77
2023/06/25 04:29:50;;;;;;;14.98;8.90;;;;;;;18.71;70.87;102083.78;7392740;19;19918;-75
2023/06/25 04:32:21;;;;;;;12.50;7.45;;;;;;;18.73;71.31;102086.28;7395798;19;19922;-76
2023/06/25 04:34:50;;;;;;;15.45;8.85;;;;;;;18.73;71.37;102087.13;7393526;19;19915;-76
2023/06/25 04:37:19;;;;;;;14.65;8.23;;;;;;;18.75;71.33;102084.22;7392822;19;20410;-76
2023/06/25 04:39:48;;;;;;;19.05;8.77;;;;;;;18.76;71.62;102080.44;7395101;19;19927;-76
2023/06/25 04:42:16;;;;;;;17.60;8.40;;;;;;;18.78;71.00;102081.91;7395176;19;20059;-75
2023/06/25 04:44:45;;;;;;;15.25;8.82;;;;;;;18.84;71.29;102093.91;7392351;19;19921;-75
2023/06/25 04:47:14;;;;;;;15.48;8.20;;;;;;;18.87;70.80;102088.91;7392952;19;19978;-75
2023/06/25 04:49:45;;;;;;;14.32;8.15;;;;;;;18.89;71.16;102084.09;7394919;19;20576;-75
2023/06/25 04:52:18;;;;;;;14.75;9.07;;;;;;;18.91;70.83;102078.41;7396383;19;19978;-75
2023/06/25 04:54:47;;;;;;;16.20;8.57;;;;;;;18.96;70.55;102082.22;7394905;19;19929;-75
2023/06/25 04:57:16;;;;;;;15.07;8.32;;;;;;;18.99;70.81;102086.44;7396005;19;19939;-76
2023/06/25 04:59:45;;;;;;;13.63;8.00;;;;;;;18.99;70.90;102090.00;7395360;19;19923;-76
2023/06/25 05:02:13;;;;;;;12.57;7.85;;;;;;;19.02;71.06;102081.44;7392947;19;19918;-76
2023/06/25 05:04:45;;;;;;;13.82;8.88;;;;;;;19.04;71.08;102082.03;7394133;19;19914;-76
2023/06/25 05:07:14;;;;;;;14.30;8.05;;;;;;;19.06;71.07;102084.59;7398451;19;19946;-75
2023/06/25 05:09:42;;;;;;;17.08;8.57;;;;;;;19.09;70.71;102094.25;7403207;19;19922;-74
2023/06/25 05:12:11;;;;;;;15.90;8.98;;;;;;;19.12;70.75;102091.09;7404902;19;19943;-76
2023/06/25 05:14:40;;;;;;;14.88;8.15;;;;;;;19.15;71.07;102096.19;7397927;19;19982;-75
2023/06/25 05:17:09;;;;;;;14.43;9.00;;;;;;;19.17;70.83;102094.91;7398026;19;19926;-75
2023/06/25 05:19:37;;;;;;;15.60;9.00;;;;;;;19.24;70.87;102094.97;7393498;19;19982;-74
2023/06/25 05:22:09;;;;;;;15.07;8.38;;;;;;;19.28;71.01;102088.03;7395703;19;19947;-76
2023/06/25 05:24:38;;;;;;;15.00;8.15;;;;;;;19.31;70.50;102091.19;7390997;19;20770;-75
2023/06/25 05:27:08;;;;;;;11.98;7.60;;;;;;;19.36;70.51;102093.31;7396266;19;19924;-75
2023/06/25 05:29:37;;;;;;;11.02;7.53;;;;;;;19.39;70.67;102092.91;7394357;19;19986;-76
2023/06/25 05:32:07;;;;;;;15.98;8.25;;;;;;;19.45;70.65;102092.13;7394299;19;19919;-75
2023/06/25 05:34:36;;;;;;;12.02;7.55;;;;;;;19.47;70.22;102090.00;7393668;19;19917;-75
2023/06/25 05:37:05;;;;;;;13.27;7.32;;;;;;;19.51;70.26;102087.69;7392941;19;19929;-76
2023/06/25 05:39:37;;;;;;;14.02;7.63;;;;;;;19.56;69.85;102077.00;7392829;19;19930;-75
2023/06/25 05:42:06;;;;;;;13.75;8.25;;;;;;;19.62;70.08;102084.38;7393428;19;20233;-75
2023/06/25 05:44:35;;;;;;;13.45;8.18;;;;;;;19.65;69.30;102084.81;7391697;19;20277;-75
2023/06/25 05:47:04;;;;;;;13.10;7.70;;;;;;;19.67;69.80;102071.78;7394159;19;19926;-75
2023/06/25 05:49:32;;;;;;;14.95;7.72;;;;;;;19.71;69.89;102075.78;7393901;19;20550;-75
2023/06/25 05:52:01;;;;;;;12.30;7.18;;;;;;;19.73;69.29;102073.66;7399584;19;20356;-76
2023/06/25 05:54:30;;;;;;;10.82;7.00;;;;;;;19.76;68.98;102075.97;7394709;19;19926;-77
2023/06/25 05:57:01;;;;;;;13.38;7.90;;;;;;;19.81;69.43;102069.88;7399855;19;19926;-75
2023/06/25 05:59:30;;;;;;;12.85;7.28;;;;;;;19.86;68.85;102068.22;7396497;19;20306;-76
2023/06/25 06:01:59;;;;;;;12.95;6.75;;;;;;;19.90;68.77;102061.28;7400538;19;19958;-76
2023/06/25 06:04:28;;;;;;;11.50;7.80;;;;;;;19.99;68.82;102069.28;7394052;19;19948;-76
2023/06/25 06:06:56;;;;;;;14.43;7.95;;;;;;;20.03;69.44;102065.06;7399780;19;20340;-75
2023/06/25 06:09:25;;;;;;;13.32;7.22;;;;;;;20.08;69.52;102060.66;7394127;19;19914;-75
2023/06/25 06:11:54;;;;;;;10.25;7.32;;;;;;;20.15;69.32;102060.66;7391044;19;19954;-75
2023/06/25 06:14:25;;;;;;;14.45;8.30;;;;;;;20.20;69.49;102060.84;7393729;19;20413;-76
2023/06/25 06:16:54;;;;;;;14.18;8.18;;;;;;;20.28;69.46;102055.16;7392749;19;20073;-75
2023/06/25 06:19:23;;;;;;;14.73;8.68;;;;;;;20.33;69.11;102058.13;7391914;19;20335;-76
2023/06/25 06:21:52;;;;;;;16.30;8.70;;;;;;;20.38;69.06;102047.41;7394752;19;19930;-75
2023/06/25 06:24:20;;;;;;;12.68;7.72;;;;;;;20.44;69.15;102053.91;7393182;19;19919;-76
2023/06/25 06:26:50;;;;;;;11.95;7.85;;;;;;;20.49;68.65;102049.50;7394854;19;20018;-76
2023/06/25 06:29:20;;;;;;;12.77;8.00;;;;;;;20.55;69.08;102053.25;7394771;19;19922;-76
2023/06/25 06:31:51;;;;;;;14.10;8.30;;;;;;;20.60;68.83;102048.81;7391091;19;20353;-76
2023/06/25 06:34:20;;;;;;;14.32;8.60;;;;;;;20.66;68.59;102050.72;7392034;19;19929;-76
2023/06/25 06:36:49;;;;;;;16.88;8.45;;;;;;;20.71;68.40;102048.16;7391550;19;19926;-77
2023/06/25 06:39:17;;;;;;;13.02;7.70;;;;;;;20.78;67.97;102045.41;7394284;19;20422;-76
2023/06/25 06:41:46;;;;;;;17.40;8.25;;;;;;;20.84;67.83;102050.00;7394039;19;19922;-76
2023/06/25 06:44:17;;;;;;;14.65;7.93;;;;;;;20.89;67.40;102047.47;7392261;19;20011;-75
2023/06/25 06:46:46;;;;;;;14.05;8.38;;;;;;;20.95;67.13;102040.28;7391446;19;20302;-75
2023/06/25 06:49:19;;;;;;;13.35;7.63;;;;;;;21.04;66.80;102047.22;7393788;19;20001;-75
2023/06/25 06:51:48;;;;;;;15.63;8.40;;;;;;;21.10;67.17;102030.72;7395061;19;19929;-75
2023/06/25 06:54:16;;;;;;;15.35;8.75;;;;;;;21.14;66.86;102032.00;7390986;19;19918;-76
2023/06/25 06:56:45;;;;;;;15.55;8.45;;;;;;;21.19;66.94;102031.34;7391132;19;19918;-75
2023/06/25 06:59:14;;;;;;;14.23;8.60;;;;;;;21.22;66.86;102025.44;7394193;19;19922;-76
2023/06/25 07:01:42;;;;;;;14.57;8.27;;;;;;;21.29;67.23;102026.25;7393711;19;19982;-77
2023/06/25 07:04:11;;;;;;;12.57;8.55;;;;;;;21.33;66.63;102023.88;7396408;19;19923;-77
2023/06/25 07:06:42;;;;;;;11.55;8.55;;;;;;;21.38;66.43;102019.44;7395601;19;19926;-76
2023/06/25 07:09:11;;;;;;;15.45;9.23;;;;;;;21.44;66.75;102034.19;7396788;19;19919;-74
2023/06/25 07:11:40;;;;;;;13.70;8.02;;;;;;;21.50;66.82;102022.31;7390965;19;19990;-75
2023/06/25 07:14:09;;;;;;;14.35;9.07;;;;;;;21.56;66.99;102029.66;7392837;19;19929;-75
2023/06/25 07:16:37;;;;;;;16.40;9.55;;;;;;;21.61;66.65;102027.94;7391300;19;19926;-76
2023/06/25 07:19:06;;;;;;;12.60;9.57;;;;;;;21.68;66.14;102025.13;7392862;19;20024;-75
2023/06/25 07:21:35;;;;;;;16.98;9.25;;;;;;;21.75;66.57;102017.69;7391410;19;20390;-75
2023/06/25 07:24:07;;;;;;;13.80;8.68;;;;;;;21.84;66.49;102023.75;7390073;19;19926;-75
2023/06/25 07:26:35;;;;;;;14.20;10.07;;;;;;;21.90;65.95;102018.22;7389758;19;19933;-75
2023/06/25 07:29:04;;;;;;;14.25;10.18;;;;;;;21.96;65.55;102022.00;7392113;19;19922;-76
2023/06/25 07:31:34;;;;;;;16.13;10.88;;;;;;;22.01;65.62;102023.00;7388409;19;19921;-76
2023/06/25 07:34:02;;;;;;;15.13;10.38;;;;;;;22.07;65.80;102021.25;7390817;19;19918;-76
2023/06/25 07:36:31;;;;;;;13.57;9.55;;;;;;;22.15;65.84;102018.22;7390452;19;19914;-75
2023/06/25 07:39:00;;;;;;;12.98;9.10;;;;;;;22.24;65.71;102007.78;7390604;19;19946;-75
2023/06/25 07:41:31;;;;;;;13.88;9.38;;;;;;;22.27;65.58;102008.19;7391049;19;19929;-75
2023/06/25 07:44:00;;;;;;;15.73;10.27;;;;;;;22.32;64.92;102010.25;7391155;19;19980;-75
2023/06/25 07:46:29;;;;;;;15.13;9.63;;;;;;;22.37;65.36;102008.50;7390519;19;19919;-75
2023/06/25 07:48:58;;;;;;;13.02;10.23;;;;;;;22.44;64.65;102012.00;7388526;19;19993;-76
2023/06/25 07:51:26;;;;;;;18.67;10.18;;;;;;;22.52;64.48;102005.41;7393081;19;19937;-76
2023/06/25 07:53:56;;;;;;;13.43;9.88;;;;;;;22.58;64.38;102013.56;7389637;19;21001;-76
2023/06/25 07:56:24;;;;;;;13.48;9.40;;;;;;;22.62;64.93;102005.69;7388822;19;19922;-75
2023/06/25 07:58:56;;;;;;;13.48;9.27;;;;;;;22.70;65.16;102012.81;7390343;19;20380;-74
2023/06/25 08:01:24;;;;;;;12.98;9.50;;;;;;;22.78;64.21;102004.28;7389820;19;19926;-76
2023/06/25 08:03:53;;;;;;;12.77;9.38;;;;;;;22.86;64.00;102006.72;7389845;19;19929;-75
2023/06/25 08:06:23;;;;;;;15.18;9.45;;;;;;;22.93;64.47;102001.97;7389902;19;20014;-76
2023/06/25 08:08:53;;;;;;;12.30;9.13;;;;;;;22.99;63.49;102006.53;7390675;19;19922;-75
2023/06/25 08:11:22;;;;;;;15.73;10.77;;;;;;;23.03;63.50;102005.00;7388706;19;21583;-76
2023/06/25 08:13:51;;;;;;;12.60;8.65;;;;;;;23.07;63.50;102000.72;7391124;19;19982;-75
2023/06/25 08:16:22;;;;;;;14.32;8.98;;;;;;;23.15;63.93;101994.06;7390177;19;19922;-76
2023/06/25 08:18:51;;;;;;;;;;;;;;;23.06;65.28;101997.13;7393418;19;20024;-76
2023/06/25 08:21:19;;;;;;;12.73;9.57;;;;;;;23.27;63.01;101993.03;7387395;19;19927;-75
2023/06/25 08:23:48;;;;;;;13.75;8.60;;;;;;;23.37;63.15;101996.06;7389957;19;20554;-76
2023/06/25 08:26:17;;;;;;;12.98;10.13;;;;;;;23.48;62.54;101991.69;7389204;19;20325;-76
2023/06/25 08:28:46;;;;;;;11.25;8.52;;;;;;;23.57;62.70;101994.94;7391664;19;19960;-76
2023/06/25 08:31:14;;;;;;;11.65;9.02;;;;;;;23.66;62.48;101993.53;7388043;19;20375;-76
2023/06/25 08:33:47;;;;;;;14.13;9.63;;;;;;;23.74;61.29;101990.41;7396832;19;19915;-77
2023/06/25 08:36:15;;;;;;;13.30;8.70;;;;;;;23.83;61.55;101987.09;7400849;19;19936;-75
2023/06/25 08:38:44;;;;;;;12.88;9.23;;;;;;;23.93;60.84;101984.59;7396950;19;19922;-77
2023/06/25 08:41:13;;;;;;;9.98;8.35;;;;;;;23.99;59.87;101971.75;7399084;19;19935;-77
2023/06/25 08:43:42;;;;;;;9.73;7.90;;;;;;;24.06;60.46;101977.16;7397757;19;19919;-75
2023/06/25 08:46:11;;;;;;;11.60;9.00;;;;;;;24.11;60.88;101971.78;7392243;19;19922;-76
2023/06/25 08:48:41;;;;;;;10.40;9.00;;;;;;;24.15;58.25;101960.09;7388600;19;19923;-76
2023/06/25 08:51:18;;;;;;;11.90;8.55;;;;;;;24.17;56.82;101966.16;7391811;19;19967;-76
2023/06/25 08:53:47;;;;;;;11.73;10.00;;;;;;;24.26;57.81;101961.97;7389857;19;19933;-77
2023/06/25 08:56:18;;;;;;;12.20;9.20;;;;;;;24.28;57.35;101965.34;7391051;19;19930;-76
2023/06/25 08:58:47;;;;;;;12.15;8.73;;;;;;;24.30;56.17;101959.56;7395505;19;24092;-76
2023/06/25 09:01:16;;;;;;;12.82;9.00;;;;;;;24.37;56.20;101965.81;7405390;19;20340;-76
2023/06/25 09:03:45;;;;;;;11.82;9.75;;;;;;;24.47;56.37;101960.50;7406865;19;19922;-77
2023/06/25 09:06:18;;;;;;;11.27;8.70;;;;;;;24.57;56.72;101963.50;7403339;19;19958;-77
2023/06/25 09:08:47;;;;;;;12.02;10.15;;;;;;;24.66;56.83;101966.69;7401734;19;19931;-76
2023/06/25 09:11:16;;;;;;;10.07;8.88;;;;;;;24.72;56.96;101954.72;7395367;19;19930;-76
2023/06/25 09:13:46;;;;;;;11.30;9.13;;;;;;;24.81;57.28;101955.97;7396279;19;19990;-77
2023/06/25 09:16:15;;;;;;;11.70;7.60;;;;;;;24.87;57.07;101951.44;7394528;19;19981;-76
2023/06/25 09:18:44;;;;;;;11.45;7.65;;;;;;;24.95;56.26;101959.31;7395226;19;19989;-76
2023/06/25 09:21:13;;;;;;;10.95;8.43;;;;;;;25.04;57.27;101955.91;7392556;19;20272;-77
2023/06/25 09:23:44;;;;;;;9.93;8.07;;;;;;;25.14;55.44;101953.38;7395681;19;19935;-77
2023/06/25 09:26:13;;;;;;;9.85;7.90;;;;;;;25.23;55.30;101953.81;7393245;19;19937;-76
2023/06/25 09:28:51;;;;;;;11.60;8.18;;;;;;;25.28;53.31;101954.72;7397815;19;22813;-76
2023/06/25 09:31:20;;;;;;;10.50;7.40;;;;;;;25.34;52.95;101943.78;7395215;19;19998;-77
2023/06/25 09:33:53;;;;;;;9.82;7.50;;;;;;;25.41;52.77;101937.03;7395978;19;19923;-77
2023/06/25 09:36:22;;;;;;;10.05;8.23;;;;;;;25.47;54.09;101933.25;7394519;19;19915;-77
2023/06/25 09:38:54;;;;;;;7.82;5.75;;;;;;;25.58;50.79;101943.44;7397701;19;19933;-77
2023/06/25 09:41:24;;;;;;;8.70;6.63;;;;;;;25.66;50.71;101936.66;7396271;19;19915;-76
2023/06/25 09:43:55;;;;;;;9.38;6.13;;;;;;;25.76;50.76;101936.78;7395948;19;19978;-76
2023/06/25 09:46:28;;;;;;;7.03;5.70;;;;;;;25.88;50.99;101936.72;7392919;19;19942;-77
2023/06/25 09:49:01;;;;;;;8.50;6.40;;;;;;;25.96;50.63;101931.59;7394179;19;20408;-77
2023/06/25 09:51:33;;;;;;;7.90;5.78;;;;;;;26.07;48.80;101927.88;7396709;19;19929;-77
2023/06/25 09:54:10;;;;;;;7.00;5.95;;;;;;;26.13;47.10;101926.88;7396862;19;19919;-77
2023/06/25 09:56:41;;;;;;;7.03;5.55;;;;;;;26.21;47.27;101933.06;7391001;19;20236;-77
2023/06/25 09:59:10;;;;;;;9.50;6.00;;;;;;;26.24;47.95;101929.78;7392123;19;22966;-76
2023/06/25 10:01:39;;;;;;;6.00;4.90;;;;;;;26.36;49.42;101930.53;7395526;19;19982;-76
2023/06/25 10:04:09;;;;;;;7.20;5.72;;;;;;;26.51;46.65;101925.19;7391592;19;19926;-76
2023/06/25 10:06:39;;;;;;;6.47;5.47;;;;;;;26.61;46.69;101928.94;7393115;19;20023;-76
2023/06/25 10:09:10;;;;;;;10.15;5.10;;;;;;;26.70;46.45;101929.31;7392557;19;19929;-77
2023/06/25 10:11:39;;;;;;;8.20;5.30;;;;;;;26.78;48.30;101923.31;7392003;19;19929;-76
2023/06/25 10:14:08;;;;;;;7.30;5.68;;;;;;;26.90;47.44;101923.19;7391960;19;19974;-77
2023/06/25 10:16:37;;;;;;;7.00;5.07;;;;;;;26.98;44.88;101922.72;7391935;19;19919;-76
2023/06/25 10:19:06;;;;;;;5.97;5.35;;;;;;;27.02;45.08;101919.16;7392726;19;20458;-76
2023/06/25 10:21:34;;;;;;;6.57;5.18;;;;;;;27.11;45.99;101911.22;7393582;19;19933;-76
2023/06/25 10:24:05;;;;;;;7.03;5.35;;;;;;;27.17;45.18;101909.34;7394151;19;19985;-77
2023/06/25 10:26:39;;;;;;;7.03;5.03;;;;;;;27.18;44.56;101908.28;7392317;19;19988;-77
2023/06/25 10:29:09;;;;;;;7.00;4.88;;;;;;;27.28;45.98;101900.03;7391167;19;19918;-76
2023/06/25 10:31:42;;;;;;;6.28;4.35;;;;;;;27.40;43.16;101897.94;7391625;19;19922;-76
2023/06/25 10:34:13;;;;;;;5.80;4.35;;;;;;;27.46;43.51;101892.19;7392550;19;19982;-76
2023/06/25 10:36:51;;;;;;;5.30;4.20;;;;;;;27.57;46.71;101893.13;7394190;19;19983;-77
2023/06/25 10:39:20;;;;;;;6.07;4.82;;;;;;;27.75;45.30;101889.09;7391655;19;20600;-76
2023/06/25 10:41:51;;;;;;;7.18;4.95;;;;;;;27.78;42.74;101885.81;7393038;19;19925;-76
2023/06/25 10:44:29;;;;;;;6.45;4.93;;;;;;;27.80;42.63;101876.13;7394966;19;20036;-77
2023/06/25 10:47:04;;;;;;;6.15;4.22;;;;;;;27.91;42.85;101877.03;7393471;19;19943;-76
2023/06/25 10:49:33;;;;;;;6.47;3.97;;;;;;;28.02;42.24;101873.19;7395799;19;20301;-76
2023/06/25 10:52:02;;;;;;;4.00;3.33;;;;;;;28.09;39.52;101867.44;7398658;19;19927;-76
2023/06/25 10:54:32;;;;;;;5.20;3.17;;;;;;;28.20;39.27;101871.94;7405530;19;19926;-77
2023/06/25 10:57:11;;;;;;;4.90;3.33;;;;;;;28.24;37.08;101870.28;7404650;19;19929;-77
2023/06/25 10:59:40;;;;;;;4.63;3.17;;;;;;;28.26;38.63;101866.13;7396560;19;19927;-77
2023/06/25 11:02:16;;;;;;;6.25;3.63;;;;;;;28.29;37.87;101860.06;7393995;19;20420;-77
2023/06/25 11:04:52;;;;;;;3.70;3.15;;;;;;;28.38;38.82;101852.06;7393908;19;19934;-76
2023/06/25 11:07:21;;;;;;;3.33;2.88;;;;;;;28.51;39.02;101848.78;7394541;19;19962;-76
2023/06/25 11:09:53;;;;;;;4.35;3.55;;;;;;;28.64;37.63;101853.81;7402224;19;19918;-75
2023/06/25 11:12:28;;;;;;;4.15;3.45;;;;;;;28.71;36.47;101853.56;7399952;19;20195;-77
2023/06/25 11:14:57;;;;;;;6.22;3.70;;;;;;;28.86;38.34;101846.09;7395964;19;19918;-77
2023/06/25 11:17:26;;;;;;;4.55;3.50;;;;;;;29.04;37.78;101846.66;7395274;19;20641;-76
2023/06/25 11:19:57;;;;;;;7.00;3.92;;;;;;;29.10;36.71;101840.03;7393371;19;20013;-76
2023/06/25 11:22:26;;;;;;;6.18;3.58;;;;;;;29.12;38.26;101837.81;7392202;19;19919;-76
2023/06/25 11:24:54;;;;;;;5.90;3.75;;;;;;;29.23;39.07;101834.75;7390433;19;19919;-78
2023/06/25 11:27:30;;;;;;;5.20;4.13;;;;;;;29.36;37.69;101827.84;7394279;19;19921;-76
2023/06/25 11:29:59;;;;;;;5.10;3.70;;;;;;;29.47;38.49;101831.44;7389923;19;19921;-78